BVX177 ENZV-ENGM
Flight info
| Callsign | BVX177 |
|---|---|
| Flight time | 0h 35m |
| Altitude | 33000 |
| Route | UPLEV DCT OSKOM DCT RIPAM |
| Aircraft | A319/M-SDE3FGHIRWY/LB1 |
Departure
| Time | 2026-04-16 12:05 |
|---|---|
| Airport | Stavanger Airport, Sola (ENZV) |
Arrival
| Time | 2026-04-16 12:40 |
|---|---|
| Airport | Oslo-Gardermoen International Airport (ENGM) |
| Time | Latitude | Longitude | Altitude | Speed | Heading |
|---|---|---|---|---|---|
| 2026-04-16 11:42 | 58.88315 | 5.63063 | 26 ft | 0 kts | 254° |
| 2026-04-16 12:00 | 58.88317 | 5.63082 | 31 ft | 4 kts | 255° |
| 2026-04-16 12:00 | 58.88324 | 5.63133 | 30 ft | 4 kts | 255° |
| 2026-04-16 12:00 | 58.88326 | 5.63147 | 30 ft | 1 kts | 254° |
| 2026-04-16 12:01 | 58.88326 | 5.63146 | 30 ft | 0 kts | 254° |
| 2026-04-16 12:02 | 58.88336 | 5.63131 | 27 ft | 4 kts | 333° |
| 2026-04-16 12:03 | 58.88364 | 5.63154 | 27 ft | 4 kts | 32° |
| 2026-04-16 12:03 | 58.88386 | 5.63181 | 28 ft | 5 kts | 33° |
| 2026-04-16 12:03 | 58.88428 | 5.63252 | 29 ft | 12 kts | 59° |
| 2026-04-16 12:03 | 58.88477 | 5.63414 | 31 ft | 16 kts | 22° |
| 2026-04-16 12:04 | 58.88597 | 5.63421 | 31 ft | 19 kts | 359° |
| 2026-04-16 12:04 | 58.88702 | 5.63456 | 31 ft | 15 kts | 58° |
| 2026-04-16 12:04 | 58.88709 | 5.63666 | 28 ft | 14 kts | 89° |
| 2026-04-16 12:04 | 58.88647 | 5.63755 | 29 ft | 18 kts | 179° |
| 2026-04-16 12:05 | 58.88289 | 5.63766 | 31 ft | 93 kts | 179° |
| 2026-04-16 12:05 | 58.87447 | 5.63768 | 391 ft | 126 kts | 171° |
| 2026-04-16 12:05 | 58.86587 | 5.63788 | 1285 ft | 123 kts | 169° |
| 2026-04-16 12:05 | 58.85736 | 5.63818 | 2129 ft | 120 kts | 170° |
| 2026-04-16 12:06 | 58.84947 | 5.64126 | 2857 ft | 116 kts | 151° |
| 2026-04-16 12:06 | 58.84447 | 5.65421 | 3424 ft | 138 kts | 115° |
| 2026-04-16 12:06 | 58.84621 | 5.67551 | 3755 ft | 182 kts | 81° |
| 2026-04-16 12:06 | 58.85126 | 5.69980 | 4142 ft | 208 kts | 76° |
| 2026-04-16 12:07 | 58.85733 | 5.72685 | 4616 ft | 229 kts | 75° |
| 2026-04-16 12:07 | 58.86412 | 5.75658 | 5132 ft | 254 kts | 74° |
| 2026-04-16 12:07 | 58.87151 | 5.78917 | 5811 ft | 274 kts | 73° |
| 2026-04-16 12:07 | 58.87925 | 5.82347 | 6706 ft | 282 kts | 72° |
| 2026-04-16 12:08 | 58.88715 | 5.85871 | 7712 ft | 288 kts | 73° |
| 2026-04-16 12:08 | 58.89513 | 5.89471 | 8723 ft | 293 kts | 73° |
| 2026-04-16 12:08 | 58.90317 | 5.93131 | 9730 ft | 299 kts | 72° |
| 2026-04-16 12:08 | 58.91136 | 5.96897 | 10458 ft | 313 kts | 73° |
| 2026-04-16 12:09 | 58.92003 | 6.00936 | 10848 ft | 337 kts | 72° |
| 2026-04-16 12:09 | 58.92932 | 6.05279 | 11150 ft | 360 kts | 72° |
| 2026-04-16 12:09 | 58.93912 | 6.09838 | 11723 ft | 372 kts | 72° |
| 2026-04-16 12:09 | 58.94919 | 6.14496 | 12488 ft | 377 kts | 72° |
| 2026-04-16 12:10 | 58.95984 | 6.19184 | 13303 ft | 384 kts | 66° |
| 2026-04-16 12:10 | 58.97434 | 6.23614 | 14085 ft | 392 kts | 60° |
| 2026-04-16 12:10 | 58.98941 | 6.28041 | 14758 ft | 396 kts | 60° |
| 2026-04-16 12:10 | 59.00465 | 6.32517 | 15363 ft | 400 kts | 60° |
| 2026-04-16 12:11 | 59.02006 | 6.37065 | 15995 ft | 406 kts | 60° |
| 2026-04-16 12:11 | 59.03563 | 6.41675 | 16661 ft | 411 kts | 60° |
| 2026-04-16 12:11 | 59.05143 | 6.46354 | 17281 ft | 417 kts | 60° |
| 2026-04-16 12:11 | 59.06743 | 6.51092 | 17945 ft | 422 kts | 60° |
| 2026-04-16 12:12 | 59.08362 | 6.55903 | 18579 ft | 428 kts | 60° |
| 2026-04-16 12:12 | 59.09995 | 6.60773 | 19169 ft | 432 kts | 60° |
| 2026-04-16 12:12 | 59.11642 | 6.65694 | 19776 ft | 436 kts | 60° |
| 2026-04-16 12:12 | 59.13304 | 6.70663 | 20367 ft | 440 kts | 60° |
| 2026-04-16 12:13 | 59.14977 | 6.75671 | 20949 ft | 443 kts | 60° |
| 2026-04-16 12:13 | 59.16664 | 6.80729 | 21505 ft | 447 kts | 60° |
| 2026-04-16 12:13 | 59.18359 | 6.85828 | 22060 ft | 450 kts | 60° |
| 2026-04-16 12:13 | 59.20064 | 6.90972 | 22599 ft | 453 kts | 60° |
| 2026-04-16 12:14 | 59.21785 | 6.96162 | 23145 ft | 456 kts | 60° |
| 2026-04-16 12:14 | 59.23509 | 7.01382 | 23670 ft | 459 kts | 60° |
| 2026-04-16 12:14 | 59.25242 | 7.06655 | 24125 ft | 462 kts | 60° |
| 2026-04-16 12:14 | 59.26981 | 7.11956 | 24588 ft | 464 kts | 60° |
| 2026-04-16 12:15 | 59.28724 | 7.17273 | 25064 ft | 465 kts | 60° |
| 2026-04-16 12:15 | 59.30476 | 7.22618 | 25551 ft | 467 kts | 60° |
| 2026-04-16 12:15 | 59.32232 | 7.27981 | 26015 ft | 469 kts | 60° |
| 2026-04-16 12:15 | 59.33992 | 7.33367 | 26458 ft | 470 kts | 60° |
| 2026-04-16 12:16 | 59.35753 | 7.38786 | 26885 ft | 472 kts | 60° |
| 2026-04-16 12:16 | 59.37515 | 7.44229 | 27322 ft | 474 kts | 60° |
| 2026-04-16 12:16 | 59.39285 | 7.49701 | 27734 ft | 476 kts | 60° |
| 2026-04-16 12:16 | 59.41058 | 7.55198 | 28161 ft | 478 kts | 60° |
| 2026-04-16 12:17 | 59.42834 | 7.60718 | 28586 ft | 479 kts | 60° |
| 2026-04-16 12:17 | 59.44617 | 7.66267 | 28966 ft | 481 kts | 60° |
| 2026-04-16 12:17 | 59.46405 | 7.71842 | 29357 ft | 483 kts | 60° |
| 2026-04-16 12:17 | 59.48201 | 7.77448 | 29764 ft | 484 kts | 60° |
| 2026-04-16 12:18 | 59.49985 | 7.83037 | 30322 ft | 481 kts | 60° |
| 2026-04-16 12:18 | 59.51756 | 7.88618 | 30811 ft | 479 kts | 60° |
| 2026-04-16 12:18 | 59.53513 | 7.94177 | 31276 ft | 477 kts | 60° |
| 2026-04-16 12:18 | 59.55264 | 7.99725 | 31715 ft | 476 kts | 60° |
| 2026-04-16 12:19 | 59.57010 | 8.05258 | 32206 ft | 475 kts | 61° |
| 2026-04-16 12:19 | 59.58751 | 8.10783 | 32667 ft | 473 kts | 61° |
| 2026-04-16 12:19 | 59.60483 | 8.16292 | 33082 ft | 473 kts | 61° |
| 2026-04-16 12:19 | 59.62213 | 8.21806 | 33192 ft | 470 kts | 61° |
| 2026-04-16 12:20 | 59.65057 | 8.30921 | 33207 ft | 467 kts | 61° |
| 2026-04-16 12:20 | 59.68454 | 8.41857 | 33204 ft | 466 kts | 61° |
| 2026-04-16 12:21 | 59.71844 | 8.52790 | 33205 ft | 466 kts | 62° |
| 2026-04-16 12:21 | 59.75216 | 8.63736 | 33210 ft | 465 kts | 62° |
| 2026-04-16 12:22 | 59.78581 | 8.74707 | 33211 ft | 465 kts | 62° |
| 2026-04-16 12:22 | 59.81933 | 8.85697 | 33212 ft | 465 kts | 62° |
| 2026-04-16 12:23 | 59.85277 | 8.96682 | 33213 ft | 464 kts | 62° |
| 2026-04-16 12:23 | 59.88609 | 9.07674 | 32912 ft | 463 kts | 62° |
| 2026-04-16 12:24 | 59.90270 | 9.13173 | 31996 ft | 467 kts | 62° |
| 2026-04-16 12:24 | 59.91954 | 9.18786 | 30932 ft | 474 kts | 62° |
| 2026-04-16 12:24 | 59.93648 | 9.24449 | 29781 ft | 479 kts | 62° |
| 2026-04-16 12:24 | 59.95360 | 9.30179 | 28549 ft | 482 kts | 61° |
| 2026-04-16 12:25 | 59.97085 | 9.35951 | 27299 ft | 485 kts | 61° |
| 2026-04-16 12:25 | 59.98814 | 9.41745 | 25970 ft | 488 kts | 61° |
| 2026-04-16 12:25 | 60.00553 | 9.47588 | 24819 ft | 489 kts | 60° |
| 2026-04-16 12:25 | 60.02275 | 9.53391 | 23978 ft | 481 kts | 60° |
| 2026-04-16 12:26 | 60.03972 | 9.59130 | 22983 ft | 476 kts | 60° |
| 2026-04-16 12:26 | 60.05634 | 9.64772 | 22133 ft | 466 kts | 60° |
| 2026-04-16 12:26 | 60.07264 | 9.70317 | 21288 ft | 459 kts | 60° |
| 2026-04-16 12:26 | 60.08868 | 9.75790 | 20443 ft | 452 kts | 60° |
| 2026-04-16 12:27 | 60.10445 | 9.81189 | 19611 ft | 446 kts | 60° |
| 2026-04-16 12:27 | 60.12002 | 9.86532 | 18795 ft | 441 kts | 60° |
| 2026-04-16 12:27 | 60.13536 | 9.91797 | 17941 ft | 435 kts | 60° |
| 2026-04-16 12:27 | 60.15045 | 9.96992 | 17197 ft | 426 kts | 61° |
| 2026-04-16 12:28 | 60.16523 | 10.02083 | 16483 ft | 419 kts | 61° |
| 2026-04-16 12:28 | 60.17975 | 10.07096 | 15818 ft | 412 kts | 61° |
| 2026-04-16 12:28 | 60.19407 | 10.12046 | 15143 ft | 407 kts | 62° |
| 2026-04-16 12:28 | 60.20814 | 10.16928 | 14488 ft | 401 kts | 62° |
| 2026-04-16 12:29 | 60.22199 | 10.21758 | 13798 ft | 396 kts | 62° |
| 2026-04-16 12:29 | 60.23564 | 10.26526 | 13090 ft | 391 kts | 62° |
| 2026-04-16 12:29 | 60.24909 | 10.31233 | 12406 ft | 385 kts | 63° |
| 2026-04-16 12:29 | 60.26233 | 10.35867 | 11701 ft | 379 kts | 63° |
| 2026-04-16 12:30 | 60.27536 | 10.40431 | 11236 ft | 369 kts | 63° |
| 2026-04-16 12:30 | 60.28782 | 10.44797 | 11105 ft | 350 kts | 63° |
| 2026-04-16 12:30 | 60.29966 | 10.48956 | 10975 ft | 335 kts | 63° |
| 2026-04-16 12:30 | 60.31101 | 10.52951 | 10850 ft | 322 kts | 63° |
| 2026-04-16 12:31 | 60.32191 | 10.56798 | 10725 ft | 311 kts | 64° |
| 2026-04-16 12:31 | 60.33245 | 10.60526 | 10552 ft | 302 kts | 64° |
| 2026-04-16 12:31 | 60.34276 | 10.64189 | 10346 ft | 298 kts | 64° |
| 2026-04-16 12:31 | 60.35296 | 10.67821 | 10216 ft | 296 kts | 64° |
| 2026-04-16 12:32 | 60.36312 | 10.71440 | 10087 ft | 296 kts | 64° |
| 2026-04-16 12:32 | 60.37322 | 10.75045 | 9914 ft | 294 kts | 64° |
| 2026-04-16 12:32 | 60.38334 | 10.78665 | 9351 ft | 300 kts | 64° |
| 2026-04-16 12:32 | 60.39339 | 10.82260 | 9123 ft | 294 kts | 64° |
| 2026-04-16 12:33 | 60.40343 | 10.85854 | 8782 ft | 293 kts | 64° |
| 2026-04-16 12:33 | 60.41336 | 10.89427 | 8433 ft | 290 kts | 64° |
| 2026-04-16 12:33 | 60.42317 | 10.92966 | 7890 ft | 287 kts | 64° |
| 2026-04-16 12:33 | 60.43292 | 10.96481 | 7368 ft | 285 kts | 64° |
| 2026-04-16 12:34 | 60.44252 | 10.99929 | 7054 ft | 274 kts | 64° |
| 2026-04-16 12:34 | 60.45156 | 11.03197 | 6926 ft | 258 kts | 67° |
| 2026-04-16 12:34 | 60.45626 | 11.06543 | 6670 ft | 241 kts | 92° |
| 2026-04-16 12:34 | 60.45378 | 11.09802 | 6271 ft | 231 kts | 115° |
| 2026-04-16 12:35 | 60.44544 | 11.12500 | 5791 ft | 225 kts | 136° |
| 2026-04-16 12:35 | 60.43420 | 11.14695 | 5315 ft | 225 kts | 138° |
| 2026-04-16 12:35 | 60.42287 | 11.16888 | 4826 ft | 224 kts | 139° |
| 2026-04-16 12:35 | 60.41023 | 11.18518 | 4628 ft | 211 kts | 158° |
| 2026-04-16 12:36 | 60.39614 | 11.19153 | 4409 ft | 207 kts | 177° |
| 2026-04-16 12:36 | 60.38191 | 11.18806 | 4152 ft | 207 kts | 194° |
| 2026-04-16 12:36 | 60.36816 | 11.17998 | 3882 ft | 206 kts | 194° |
| 2026-04-16 12:36 | 60.35442 | 11.17198 | 3602 ft | 205 kts | 195° |
| 2026-04-16 12:37 | 60.34090 | 11.16410 | 3314 ft | 198 kts | 194° |
| 2026-04-16 12:37 | 60.32798 | 11.15659 | 3043 ft | 189 kts | 194° |
| 2026-04-16 12:37 | 60.31556 | 11.14937 | 2802 ft | 184 kts | 193° |
| 2026-04-16 12:37 | 60.30331 | 11.14227 | 2547 ft | 180 kts | 194° |
| 2026-04-16 12:38 | 60.29162 | 11.13548 | 2297 ft | 170 kts | 193° |
| 2026-04-16 12:38 | 60.28049 | 11.12900 | 2057 ft | 163 kts | 194° |
| 2026-04-16 12:38 | 60.26998 | 11.12290 | 1847 ft | 154 kts | 193° |
| 2026-04-16 12:38 | 60.26006 | 11.11714 | 1628 ft | 143 kts | 193° |
| 2026-04-16 12:39 | 60.25076 | 11.11175 | 1431 ft | 135 kts | 192° |
| 2026-04-16 12:39 | 60.24188 | 11.10662 | 1249 ft | 132 kts | 194° |
| 2026-04-16 12:39 | 60.23309 | 11.10151 | 1075 ft | 131 kts | 193° |
| 2026-04-16 12:39 | 60.22438 | 11.09648 | 907 ft | 129 kts | 194° |
| 2026-04-16 12:40 | 60.21579 | 11.09150 | 722 ft | 128 kts | 194° |
| 2026-04-16 12:40 | 60.20791 | 11.08696 | 680 ft | 103 kts | 196° |
| 2026-04-16 12:40 | 60.20270 | 11.08395 | 677 ft | 53 kts | 196° |
| 2026-04-16 12:40 | 60.19998 | 11.08299 | 676 ft | 29 kts | 176° |
| 2026-04-16 12:41 | 60.19896 | 11.08422 | 675 ft | 10 kts | 111° |
| 2026-04-16 12:41 | 60.19864 | 11.08543 | 678 ft | 10 kts | 160° |
| 2026-04-16 12:41 | 60.19786 | 11.08509 | 678 ft | 14 kts | 196° |
| 2026-04-16 12:41 | 60.19685 | 11.08451 | 676 ft | 17 kts | 196° |
| 2026-04-16 12:42 | 60.19567 | 11.08414 | 677 ft | 17 kts | 150° |
| 2026-04-16 12:42 | 60.19520 | 11.08640 | 674 ft | 19 kts | 106° |
| 2026-04-16 12:42 | 60.19484 | 11.08893 | 685 ft | 18 kts | 106° |
| 2026-04-16 12:42 | 60.19447 | 11.09153 | 683 ft | 15 kts | 105° |
| 2026-04-16 12:43 | 60.19401 | 11.09238 | 682 ft | 9 kts | 191° |
| 2026-04-16 12:43 | 60.19352 | 11.09211 | 683 ft | 3 kts | 196° |
| 2026-04-16 12:43 | 60.19341 | 11.09204 | 682 ft | 0 kts | 195° |
| 2026-04-16 12:43 | 60.19340 | 11.09204 | 682 ft | 0 kts | 195° |